createdAt,value
2019-03-27T00:00:18.901Z,0.5
2019-03-27T00:02:18.532Z,0.6
2019-03-27T00:04:19.161Z,0.7
2019-03-27T00:06:19.426Z,0.9
2019-03-27T00:08:19.042Z,0.7
2019-03-27T00:10:19.188Z,0.5
2019-03-27T00:12:18.813Z,1.4
2019-03-27T00:14:18.458Z,0.7
2019-03-27T00:16:18.754Z,0.8
2019-03-27T00:18:18.501Z,0.7
2019-03-27T00:20:19.176Z,0.7
2019-03-27T00:22:18.836Z,0.7
2019-03-27T00:24:18.465Z,1.4
2019-03-27T00:26:18.775Z,1.1
2019-03-27T00:28:19.419Z,0.9
2019-03-27T00:30:19.053Z,0.5
2019-03-27T00:32:18.693Z,0.7
2019-03-27T00:34:19.343Z,0.8
2019-03-27T00:36:19.266Z,0.9
2019-03-27T00:38:18.882Z,1
2019-03-27T00:40:19.005Z,1.1
2019-03-27T00:42:18.713Z,0.7
2019-03-27T00:44:19.409Z,1.1
2019-03-27T00:46:19.299Z,1
2019-03-27T00:48:18.968Z,1.2
2019-03-27T00:50:18.631Z,0.9
2019-03-27T00:52:19.277Z,0.8
2019-03-27T00:54:18.932Z,1.3
2019-03-27T00:56:18.820Z,0.8
2019-03-27T00:58:18.490Z,0.8
2019-03-27T01:00:19.119Z,0.8
2019-03-27T01:02:18.777Z,1
2019-03-27T01:04:18.459Z,1
2019-03-27T01:06:18.788Z,0.9
2019-03-27T01:08:19.429Z,1
2019-03-27T01:10:18.598Z,1
2019-03-27T01:12:19.060Z,1.3
2019-03-27T01:14:18.751Z,0.8
2019-03-27T01:16:19.117Z,1.6
2019-03-27T01:18:18.839Z,1
2019-03-27T01:20:18.501Z,1.4
2019-03-27T01:22:18.882Z,1.4
2019-03-27T01:24:18.492Z,0.8
2019-03-27T01:26:18.794Z,0.6
2019-03-27T01:28:18.457Z,1.1
2019-03-27T01:30:19.221Z,1.3
2019-03-27T01:32:18.891Z,1.6
2019-03-27T01:34:18.516Z,1.2
2019-03-27T01:36:18.933Z,0.6
2019-03-27T01:38:18.591Z,1.3
2019-03-27T01:40:18.741Z,1.3
2019-03-27T01:42:19.389Z,1.4
2019-03-27T01:44:19.026Z,1.4
2019-03-27T01:46:18.579Z,1.8
2019-03-27T01:48:19.228Z,1.9
2019-03-27T01:50:18.870Z,1.7
2019-03-27T01:52:18.499Z,2.3
2019-03-27T01:54:19.180Z,1.4
2019-03-27T01:56:18.734Z,1.9
2019-03-27T01:58:19.362Z,1.9
2019-03-27T02:00:19.071Z,1.6
2019-03-27T02:02:18.672Z,2.2
2019-03-27T02:04:19.300Z,2.1
2019-03-27T02:06:19.115Z,2.3
2019-03-27T02:08:18.761Z,1.9
2019-03-27T02:10:18.943Z,1.8
2019-03-27T02:12:18.581Z,1.7
2019-03-27T02:14:19.188Z,2.5
2019-03-27T02:16:19.024Z,2.4
2019-03-27T02:18:18.765Z,1.6
2019-03-27T02:20:19.419Z,2.2
2019-03-27T02:22:19.088Z,2.3
2019-03-27T02:24:18.739Z,2
2019-03-27T02:26:19.041Z,2
2019-03-27T02:28:18.666Z,1.9
2019-03-27T02:30:19.303Z,1.8
2019-03-27T02:32:20.849Z,2.1
2019-03-27T02:34:18.950Z,2.4
2019-03-27T02:36:18.830Z,2
2019-03-27T02:38:18.481Z,2.4
2019-03-27T02:40:18.623Z,2.7
2019-03-27T02:42:19.315Z,2.6
2019-03-27T02:44:18.974Z,2.8
2019-03-27T02:46:24.794Z,1.6
2019-03-27T02:48:19.336Z,2.6
2019-03-27T02:50:19.041Z,3.1
2019-03-27T02:52:18.715Z,3.2
2019-03-27T02:54:19.356Z,2.8
2019-03-27T02:56:18.675Z,3.1
2019-03-27T02:58:19.353Z,3
2019-03-27T03:00:18.998Z,2.5
2019-03-27T03:02:18.693Z,3.2
2019-03-27T03:04:19.385Z,3
2019-03-27T03:06:18.673Z,3.3
2019-03-27T03:08:19.302Z,3
2019-03-27T03:10:19.459Z,2.9
2019-03-27T03:12:19.077Z,3
2019-03-27T03:14:18.741Z,3.3
2019-03-27T03:16:19.055Z,3.4
2019-03-27T03:18:18.803Z,3.9
2019-03-27T03:20:18.479Z,3.5
2019-03-27T03:22:19.219Z,3.7
2019-03-27T03:24:18.897Z,3.1
2019-03-27T03:26:19.337Z,3.5
2019-03-27T03:28:18.971Z,3.5
2019-03-27T03:30:18.689Z,4
2019-03-27T03:32:19.378Z,3.9
2019-03-27T03:34:19.068Z,3.7
2019-03-27T03:36:19.405Z,3
2019-03-27T03:38:19.055Z,3.3
2019-03-27T03:40:19.192Z,4
2019-03-27T03:42:18.883Z,3.5
2019-03-27T03:44:18.545Z,3.7
2019-03-27T03:46:18.663Z,3.8
2019-03-27T03:48:19.321Z,3.6
2019-03-27T03:50:19.032Z,3.4
2019-03-27T03:52:18.712Z,3.4
2019-03-27T03:54:19.375Z,2.6
2019-03-27T03:56:19.216Z,3.4
2019-03-27T03:58:18.923Z,2.9
2019-03-27T04:00:18.601Z,2.5
2019-03-27T04:02:19.265Z,3
2019-03-27T04:04:18.939Z,2.5
2019-03-27T04:06:18.870Z,2.6
2019-03-27T04:08:18.531Z,2.8
2019-03-27T04:10:18.757Z,2.7
2019-03-27T04:12:19.420Z,2.6
2019-03-27T04:14:19.037Z,2.8
2019-03-27T04:16:18.618Z,2.6
2019-03-27T04:18:19.341Z,2.5
2019-03-27T04:20:19.000Z,2.3
2019-03-27T04:22:18.697Z,2.8
2019-03-27T04:24:19.331Z,2.8
2019-03-27T04:26:19.125Z,3
2019-03-27T04:28:18.819Z,3.1
2019-03-27T04:30:18.462Z,2
2019-03-27T04:32:18.455Z,2.7
2019-03-27T04:34:19.143Z,2.5
2019-03-27T04:36:18.990Z,2.5
2019-03-27T04:38:18.635Z,2.5
2019-03-27T04:40:18.759Z,2.4
2019-03-27T04:42:19.398Z,2
2019-03-27T04:44:19.029Z,2.6
2019-03-27T04:46:19.026Z,2.3
2019-03-27T04:48:18.676Z,2.7
2019-03-27T04:50:19.385Z,3.2
2019-03-27T04:52:19.054Z,1.9
2019-03-27T04:54:18.696Z,2.3
2019-03-27T04:56:18.964Z,2.6
2019-03-27T04:58:18.624Z,2.4
2019-03-27T05:00:19.289Z,1.9
2019-03-27T05:02:18.948Z,1.6
2019-03-27T05:04:18.585Z,2.1
2019-03-27T05:06:18.573Z,2.3
2019-03-27T05:08:19.223Z,2.6
2019-03-27T05:10:19.355Z,3.3
2019-03-27T05:12:18.983Z,2.3
2019-03-27T05:14:18.625Z,2.6
2019-03-27T05:16:18.882Z,2.5
2019-03-27T05:18:18.585Z,3.3
2019-03-27T05:20:19.242Z,2
2019-03-27T05:22:18.862Z,2.8
2019-03-27T05:24:18.512Z,3.2
2019-03-27T05:26:18.444Z,3.6
2019-03-27T05:28:19.081Z,2.8
2019-03-27T05:30:18.779Z,2.5
2019-03-27T05:32:18.459Z,2.4
2019-03-27T05:34:19.109Z,3.2
2019-03-27T05:36:18.574Z,2.6
2019-03-27T05:38:19.210Z,3
2019-03-27T05:40:19.439Z,2.5
2019-03-27T05:42:19.081Z,2.8
2019-03-27T05:44:18.713Z,2.6
2019-03-27T05:46:18.643Z,2.4
2019-03-27T05:48:19.313Z,1.9
2019-03-27T05:50:19.081Z,3.2
2019-03-27T05:52:18.733Z,2.5
2019-03-27T05:54:19.361Z,2.3
2019-03-27T05:56:19.272Z,3
2019-03-27T05:58:18.910Z,2.8
2019-03-27T06:00:18.605Z,2.9
2019-03-27T06:02:19.270Z,2.4
2019-03-27T06:04:18.936Z,2.8
2019-03-27T06:06:18.873Z,2.8
2019-03-27T06:08:18.529Z,3.5
2019-03-27T06:10:18.675Z,3
2019-03-27T06:12:19.211Z,2.7
2019-03-27T06:14:18.858Z,3.4
2019-03-27T06:16:19.191Z,2.7
2019-03-27T06:18:18.912Z,3.6
2019-03-27T06:20:18.654Z,3.3
2019-03-27T06:22:19.327Z,3.3
2019-03-27T06:24:18.966Z,2.6
2019-03-27T06:26:19.168Z,2.7
2019-03-27T06:28:18.830Z,2.7
2019-03-27T06:30:18.494Z,3
2019-03-27T06:32:19.150Z,2.8
2019-03-27T06:34:18.786Z,2.6
2019-03-27T06:36:19.123Z,1.8
2019-03-27T06:38:18.801Z,2.5
2019-03-27T06:40:18.940Z,3.2
2019-03-27T06:42:18.625Z,2
2019-03-27T06:44:19.267Z,1.9
2019-03-27T06:46:19.317Z,2.7
2019-03-27T06:48:25.947Z,2.6
2019-03-27T06:50:19.302Z,1.7
2019-03-27T06:52:18.960Z,2.5
2019-03-27T06:54:18.602Z,1.8
2019-03-27T06:56:19.320Z,2.6
2019-03-27T06:58:19.010Z,1.6
2019-03-27T07:00:18.658Z,2.2
2019-03-27T07:02:19.308Z,1.6
2019-03-27T07:04:18.953Z,1.8
2019-03-27T07:06:18.784Z,1.8
2019-03-27T07:08:19.453Z,2.7
2019-03-27T07:10:18.596Z,2.7
2019-03-27T07:12:21.203Z,1.9
2019-03-27T07:14:19.289Z,1.6
2019-03-27T07:16:18.647Z,1.8
2019-03-27T07:18:19.364Z,2.8
2019-03-27T07:20:19.161Z,1.8
2019-03-27T07:22:18.853Z,2.2
2019-03-27T07:24:18.514Z,1.8
2019-03-27T07:26:18.855Z,1.8
2019-03-27T07:28:18.548Z,2.6
2019-03-27T07:30:19.212Z,1.6
2019-03-27T07:32:18.880Z,2.2
2019-03-27T07:34:18.530Z,2.5
2019-03-27T07:36:18.869Z,2.4
2019-03-27T07:38:18.538Z,2.2
2019-03-27T07:40:18.672Z,2.9
2019-03-27T07:42:19.411Z,1.7
2019-03-27T07:44:19.070Z,2
2019-03-27T07:46:19.444Z,2
2019-03-27T07:48:19.110Z,1.3
2019-03-27T07:50:18.792Z,2.3
2019-03-27T07:52:18.442Z,1.9
2019-03-27T07:54:19.064Z,1.7
2019-03-27T07:56:18.631Z,1.2
2019-03-27T07:58:19.267Z,2.5
2019-03-27T08:00:18.940Z,1.8
2019-03-27T08:02:18.824Z,2
2019-03-27T08:04:18.496Z,1.6
2019-03-27T08:06:18.876Z,1.9
2019-03-27T08:08:18.530Z,1.1
2019-03-27T08:10:18.689Z,1.2
2019-03-27T08:12:19.355Z,1.8
2019-03-27T08:14:19.009Z,1.3
2019-03-27T08:16:18.863Z,2.3
2019-03-27T08:18:18.594Z,1.5
2019-03-27T08:20:19.255Z,1.5
2019-03-27T08:22:18.905Z,1.9
2019-03-27T08:24:18.546Z,1.7
2019-03-27T08:26:18.524Z,1.9
2019-03-27T08:28:19.176Z,1.2
2019-03-27T08:30:18.949Z,1.7
2019-03-27T08:32:18.565Z,1.6
2019-03-27T08:34:19.240Z,2.1
2019-03-27T08:36:19.064Z,2.1
2019-03-27T08:38:18.791Z,1.8
2019-03-27T08:40:18.916Z,2.3
2019-03-27T08:42:18.566Z,1.4
2019-03-27T08:44:19.213Z,2.7
2019-03-27T08:46:18.861Z,2.3
2019-03-27T08:48:18.542Z,2
2019-03-27T08:50:19.222Z,3.1
2019-03-27T08:52:18.880Z,2.1
2019-03-27T08:54:18.535Z,2.3
2019-03-27T08:56:19.140Z,2.7
2019-03-27T08:58:18.817Z,3.2
2019-03-27T09:00:21.223Z,2.4
2019-03-27T09:02:19.056Z,2.7
2019-03-27T09:04:18.708Z,3.1
2019-03-27T09:06:18.608Z,2
2019-03-27T09:08:18.536Z,2.3
2019-03-27T09:10:18.685Z,3.4
2019-03-27T09:12:19.334Z,1.8
2019-03-27T09:14:18.971Z,2.9
2019-03-27T09:16:19.345Z,2.2
2019-03-27T09:18:19.072Z,3
2019-03-27T09:20:18.759Z,2.5
2019-03-27T09:22:19.430Z,1.7
2019-03-27T09:24:19.096Z,1.5
2019-03-27T09:26:19.215Z,1.9
2019-03-27T09:28:18.848Z,1.6
2019-03-27T09:30:18.507Z,4.1
2019-03-27T09:32:19.184Z,1.8
2019-03-27T09:34:18.835Z,2.2
2019-03-27T09:36:18.551Z,2.3
2019-03-27T09:38:19.183Z,2
2019-03-27T09:40:19.338Z,1.6
2019-03-27T09:42:18.967Z,1.5
2019-03-27T09:44:18.624Z,1.6
2019-03-27T09:46:18.469Z,2.9
2019-03-27T09:48:19.109Z,2
2019-03-27T09:50:19.029Z,2.2
2019-03-27T09:52:18.710Z,2.1
2019-03-27T09:54:19.411Z,2.7
2019-03-27T09:56:19.753Z,1.8
2019-03-27T09:58:18.444Z,2
2019-03-27T10:00:19.118Z,2.1
2019-03-27T10:02:18.769Z,1.9
2019-03-27T10:04:19.411Z,1.7
2019-03-27T10:06:19.254Z,1.8
2019-03-27T10:08:18.955Z,1.7
2019-03-27T10:10:19.089Z,2.5
2019-03-27T10:12:18.761Z,2.6
2019-03-27T10:14:19.408Z,2.3
2019-03-27T10:16:19.411Z,3
2019-03-27T10:18:19.142Z,2.1
2019-03-27T10:20:18.982Z,1.9
2019-03-27T10:22:18.828Z,2
2019-03-27T10:24:18.515Z,3.1
2019-03-27T10:26:19.388Z,2.8
2019-03-27T10:28:19.040Z,2.9
2019-03-27T10:30:18.698Z,2.8
2019-03-27T10:32:19.354Z,3.1
2019-03-27T10:34:18.998Z,2.4
2019-03-27T10:36:19.022Z,3.2
2019-03-27T10:38:18.688Z,2.2
2019-03-27T10:40:18.826Z,2.2
2019-03-27T10:42:18.473Z,1.8
2019-03-27T10:44:19.161Z,2.5
2019-03-27T10:46:19.172Z,1.9
2019-03-27T10:48:18.817Z,2.8
2019-03-27T10:50:18.566Z,2.5
2019-03-27T10:52:19.241Z,2
2019-03-27T10:54:18.913Z,3.3
2019-03-27T10:56:19.255Z,2.9
2019-03-27T10:58:18.936Z,2.1
2019-03-27T11:00:18.654Z,1.7
2019-03-27T11:02:19.333Z,2.2
2019-03-27T11:04:19.036Z,2.5
2019-03-27T11:06:18.966Z,2.9
2019-03-27T11:08:18.605Z,2.2
2019-03-27T11:10:18.785Z,2.1
2019-03-27T11:12:18.439Z,2.7
2019-03-27T11:14:19.106Z,4.9
2019-03-27T11:16:18.458Z,1.9
2019-03-27T11:18:19.180Z,1.6
2019-03-27T11:20:30.174Z,2.2
2019-03-27T11:22:19.301Z,1.9
2019-03-27T11:24:18.970Z,2.1
2019-03-27T11:26:19.265Z,2.6
2019-03-27T11:28:19.037Z,2.7
2019-03-27T11:30:18.708Z,1.6
2019-03-27T11:32:19.357Z,1.7
2019-03-27T11:34:19.022Z,1.8
2019-03-27T11:36:19.337Z,1.3
2019-03-27T11:38:18.989Z,1.2
2019-03-27T11:40:19.124Z,2
2019-03-27T11:42:18.799Z,2.1
2019-03-27T11:44:18.489Z,1.9
2019-03-27T11:46:19.075Z,1.6
2019-03-27T11:48:18.725Z,2.2
2019-03-27T11:50:19.402Z,1.8
2019-03-27T11:52:19.083Z,1.7
2019-03-27T11:54:18.760Z,2
2019-03-27T11:56:19.109Z,1.7
2019-03-27T11:58:18.808Z,1.8
2019-03-27T12:00:18.557Z,1.5
2019-03-27T12:02:19.234Z,2.4
2019-03-27T12:04:18.897Z,1.4
2019-03-27T12:06:18.462Z,2.3
2019-03-27T12:08:19.150Z,2
2019-03-27T12:10:19.290Z,1.3
2019-03-27T12:12:18.972Z,1.7
2019-03-27T12:14:18.667Z,2
2019-03-27T12:16:19.183Z,1.5
2019-03-27T12:18:18.943Z,1.3
2019-03-27T12:20:18.658Z,1.6
2019-03-27T12:22:19.321Z,1.4
2019-03-27T12:24:19.003Z,1.7
2019-03-27T12:26:19.429Z,1.8
2019-03-27T12:28:19.057Z,1.7
2019-03-27T12:30:18.749Z,1.6
2019-03-27T12:32:19.426Z,1.7
2019-03-27T12:34:19.096Z,1
2019-03-27T12:36:19.402Z,1.8
2019-03-27T12:38:19.054Z,1.3
2019-03-27T12:40:19.178Z,2
2019-03-27T12:42:18.874Z,1.5
2019-03-27T12:44:18.599Z,1.5
2019-03-27T12:46:19.447Z,1.3
2019-03-27T12:48:19.111Z,2
2019-03-27T12:50:18.795Z,1.8
2019-03-27T12:52:18.453Z,1.9
2019-03-27T12:54:19.119Z,1.6
2019-03-27T12:56:18.946Z,1.6
2019-03-27T12:58:18.674Z,1.4
2019-03-27T13:00:19.360Z,1.4
2019-03-27T13:02:19.039Z,1.3
2019-03-27T13:04:18.696Z,1.4
2019-03-27T13:06:18.597Z,1.7
2019-03-27T13:08:19.246Z,1.9
2019-03-27T13:10:19.415Z,0.9
2019-03-27T13:12:19.091Z,1
2019-03-27T13:14:18.735Z,1.6
2019-03-27T13:16:19.120Z,1.9
2019-03-27T13:18:18.865Z,1.8
2019-03-27T13:20:18.532Z,1.2
2019-03-27T13:22:19.190Z,0.9
2019-03-27T13:24:18.848Z,1.4
2019-03-27T13:26:18.699Z,1.3
2019-03-27T13:28:19.362Z,1.6
2019-03-27T13:30:19.103Z,1.1
2019-03-27T13:32:18.781Z,1.5
2019-03-27T13:34:19.437Z,1.7
2019-03-27T13:36:18.819Z,0.7
2019-03-27T13:38:18.510Z,1
2019-03-27T13:40:18.802Z,1
2019-03-27T13:42:18.459Z,1.2
2019-03-27T13:44:19.117Z,1.6
2019-03-27T13:46:19.105Z,1.9
2019-03-27T13:48:18.765Z,1.7
2019-03-27T13:50:19.428Z,1.3
2019-03-27T13:52:18.708Z,1.6
2019-03-27T13:54:19.406Z,2.2
2019-03-27T13:56:19.261Z,1.6
2019-03-27T13:58:18.939Z,2
2019-03-27T14:00:18.625Z,1.5
2019-03-27T14:02:19.312Z,2.1
2019-03-27T14:04:18.977Z,1.8
2019-03-27T14:06:18.804Z,1.7
2019-03-27T14:08:18.455Z,2.2
2019-03-27T14:10:18.635Z,1.7
2019-03-27T14:12:19.322Z,1.4
2019-03-27T14:14:18.994Z,2.3
2019-03-27T14:16:19.325Z,2
2019-03-27T14:18:19.081Z,1.9
2019-03-27T14:20:18.761Z,1.5
2019-03-27T14:22:19.440Z,1.4
2019-03-27T14:24:19.089Z,1.5
2019-03-27T14:26:18.979Z,1.1
2019-03-27T14:28:18.605Z,1.8
2019-03-27T14:30:19.376Z,1.3
2019-03-27T14:32:19.040Z,1.4
2019-03-27T14:34:18.706Z,1.3
2019-03-27T14:36:19.084Z,1.3
2019-03-27T14:38:18.739Z,0.8
2019-03-27T14:40:18.890Z,2.2
2019-03-27T14:42:18.558Z,1.2
2019-03-27T14:44:19.212Z,1.4
2019-03-27T14:46:18.645Z,1.6
2019-03-27T14:48:19.274Z,1.2
2019-03-27T14:50:18.990Z,1.9
2019-03-27T14:52:18.673Z,1.5
2019-03-27T14:54:19.344Z,1.7
2019-03-27T14:56:18.596Z,1.4
2019-03-27T14:58:19.265Z,1.7
2019-03-27T15:00:18.958Z,1.3
2019-03-27T15:02:18.628Z,1.7
2019-03-27T15:04:19.308Z,1.8
2019-03-27T15:06:18.938Z,1.7
2019-03-27T15:08:18.604Z,1.3
2019-03-27T15:10:18.740Z,1.7
2019-03-27T15:12:19.366Z,1.1
2019-03-27T15:14:19.057Z,1.9
2019-03-27T15:16:18.952Z,1.1
2019-03-27T15:18:18.698Z,1.4
2019-03-27T15:20:19.383Z,1.1
2019-03-27T15:22:22.509Z,0.8
2019-03-27T15:24:20.535Z,0.7
2019-03-27T15:26:19.064Z,1.7
2019-03-27T15:28:18.708Z,1.5
2019-03-27T15:30:19.386Z,1.2
2019-03-27T15:32:19.022Z,0.8
2019-03-27T15:34:18.725Z,1.4
2019-03-27T15:36:18.530Z,1.5
2019-03-27T15:38:19.186Z,0.8
2019-03-27T15:40:19.290Z,1
2019-03-27T15:42:18.961Z,0.8
2019-03-27T15:44:18.589Z,1.1
2019-03-27T15:46:19.432Z,0.9
2019-03-27T15:48:19.083Z,1.4
2019-03-27T15:50:18.748Z,1.6
2019-03-27T15:52:19.383Z,1.4
2019-03-27T15:54:19.045Z,1.5
2019-03-27T15:56:19.410Z,1.4
2019-03-27T15:58:19.035Z,1.3
2019-03-27T16:00:18.681Z,2.3
2019-03-27T16:02:19.297Z,2.3
2019-03-27T16:04:18.925Z,2.5
2019-03-27T16:06:18.795Z,2.1
2019-03-27T16:08:19.426Z,2.5
2019-03-27T16:10:18.660Z,2.1
2019-03-27T16:12:19.135Z,1.8
2019-03-27T16:14:18.770Z,2
2019-03-27T16:16:18.530Z,1.1
2019-03-27T16:18:19.212Z,1.7
2019-03-27T16:20:18.879Z,1.5
2019-03-27T16:22:18.505Z,1.8
2019-03-27T16:24:19.131Z,1.8
2019-03-27T16:26:18.531Z,1.7
2019-03-27T16:28:19.185Z,1.5
2019-03-27T16:30:18.841Z,1.8
2019-03-27T16:32:18.471Z,1.6
2019-03-27T16:34:19.101Z,1.5
2019-03-27T16:36:19.362Z,1.3
2019-03-27T16:38:18.984Z,1.5
2019-03-27T16:40:19.347Z,1.9
2019-03-27T16:42:18.990Z,1.8
2019-03-27T16:44:18.610Z,1.6
2019-03-27T16:46:18.935Z,1.9
2019-03-27T16:48:18.615Z,1.7
2019-03-27T16:50:19.316Z,1.8
2019-03-27T16:52:18.972Z,1.4
2019-03-27T16:54:18.614Z,1.8
2019-03-27T16:56:18.869Z,1.3
2019-03-27T16:58:18.491Z,2.2
2019-03-27T17:00:19.166Z,1.6
2019-03-27T17:02:18.799Z,1.7
2019-03-27T17:04:18.453Z,1.4
2019-03-27T17:06:19.305Z,2.1
2019-03-27T17:08:18.925Z,1.2
2019-03-27T17:10:19.015Z,1.6
2019-03-27T17:12:18.643Z,1.6
2019-03-27T17:14:19.283Z,1.9
2019-03-27T17:16:18.570Z,2.1
2019-03-27T17:18:19.274Z,1.8
2019-03-27T17:20:18.929Z,1.7
2019-03-27T17:22:19.883Z,1.9
2019-03-27T17:24:18.782Z,2.4
2019-03-27T17:26:18.786Z,1.7
2019-03-27T17:28:19.416Z,1.5
2019-03-27T17:30:19.091Z,2.2
2019-03-27T17:32:18.752Z,1.5
2019-03-27T17:34:19.380Z,1.8
2019-03-27T17:36:18.782Z,2.6
2019-03-27T17:38:19.399Z,1.1
2019-03-27T17:40:18.564Z,1.6
2019-03-27T17:42:19.211Z,1.8
2019-03-27T17:44:18.868Z,1.8
2019-03-27T17:46:19.324Z,2.1
2019-03-27T17:48:18.951Z,1.8
2019-03-27T17:50:18.589Z,1.9
2019-03-27T17:52:19.223Z,1.5
2019-03-27T17:54:20.600Z,1.5
2019-03-27T17:56:18.813Z,2.9
2019-03-27T17:58:18.442Z,1.5
2019-03-27T18:00:19.101Z,1.4
2019-03-27T18:02:18.739Z,2.1
2019-03-27T18:04:19.389Z,1.9
2019-03-27T18:06:19.168Z,2
2019-03-27T18:08:18.801Z,1.9
2019-03-27T18:10:18.937Z,2.2
2019-03-27T18:12:18.563Z,1.8
2019-03-27T18:14:19.209Z,1.8
2019-03-27T18:16:18.473Z,1.5
2019-03-27T18:18:19.166Z,1.7
2019-03-27T18:20:18.853Z,2.1
2019-03-27T18:22:18.463Z,1.6
2019-03-27T18:24:19.097Z,1.5
2019-03-27T18:26:19.418Z,1.4
2019-03-27T18:28:19.045Z,1
2019-03-27T18:30:18.730Z,1.2
2019-03-27T18:32:19.361Z,0.9
2019-03-27T18:34:19.009Z,1.1
2019-03-27T18:36:19.274Z,1.5
2019-03-27T18:38:18.914Z,1.3
2019-03-27T18:40:19.001Z,1.1
2019-03-27T18:42:18.617Z,0.7
2019-03-27T18:44:19.266Z,1.8
2019-03-27T18:46:18.535Z,1.2
2019-03-27T18:48:19.166Z,1.2
2019-03-27T18:50:18.848Z,0.9
2019-03-27T18:52:18.464Z,0.9
2019-03-27T18:54:19.115Z,0.9
2019-03-27T18:56:19.391Z,0.9
2019-03-27T18:58:19.008Z,1.2
2019-03-27T19:00:18.662Z,1.7
2019-03-27T19:02:19.322Z,1.2
2019-03-27T19:04:18.943Z,1
2019-03-27T19:06:18.806Z,0.6
2019-03-27T19:08:18.434Z,1.3
2019-03-27T19:10:18.524Z,1.4
2019-03-27T19:12:19.182Z,1.4
2019-03-27T19:14:18.832Z,2
2019-03-27T19:16:19.106Z,1.3
2019-03-27T19:18:18.842Z,1.1
2019-03-27T19:20:18.543Z,1.6
2019-03-27T19:22:19.174Z,1.2
2019-03-27T19:24:18.865Z,1.7
2019-03-27T19:26:18.663Z,1.1
2019-03-27T19:28:19.277Z,1.8
2019-03-27T19:30:18.956Z,1
2019-03-27T19:32:18.606Z,2.1
2019-03-27T19:34:19.230Z,2.3
2019-03-27T19:36:19.187Z,1.7
2019-03-27T19:38:18.842Z,1.6
2019-03-27T19:40:18.950Z,1.6
2019-03-27T19:42:18.570Z,1
2019-03-27T19:44:19.189Z,1.1
2019-03-27T19:46:19.258Z,1
2019-03-27T19:48:18.901Z,1.6
2019-03-27T19:50:18.557Z,1.7
2019-03-27T19:52:19.171Z,1.3
2019-03-27T19:54:26.770Z,1.1
2019-03-27T19:56:19.390Z,1.3
2019-03-27T19:58:19.020Z,2
2019-03-27T20:00:18.683Z,1.5
2019-03-27T20:02:19.322Z,1.2
2019-03-27T20:04:19.022Z,1.6
2019-03-27T20:06:18.931Z,1.4
2019-03-27T20:08:18.549Z,1.6
2019-03-27T20:10:18.653Z,2
2019-03-27T20:12:19.286Z,1.6
2019-03-27T20:14:18.910Z,1.5
2019-03-27T20:16:18.672Z,1.9
2019-03-27T20:18:19.359Z,1.7
2019-03-27T20:20:19.019Z,1.7
2019-03-27T20:22:18.640Z,2.4
2019-03-27T20:24:19.267Z,2.2
2019-03-27T20:26:18.579Z,1.4
2019-03-27T20:28:19.210Z,1.8
2019-03-27T20:30:18.974Z,2.3
2019-03-27T20:32:18.739Z,1.8
2019-03-27T20:34:19.351Z,1.9
2019-03-27T20:36:19.187Z,1.8
2019-03-27T20:38:18.811Z,1.6
2019-03-27T20:40:18.886Z,2.6
2019-03-27T20:42:18.511Z,2.3
2019-03-27T20:44:19.132Z,1.8
2019-03-27T20:46:24.684Z,1.9
2019-03-27T20:48:18.740Z,2.2
2019-03-27T20:50:19.365Z,2.7
2019-03-27T20:52:19.005Z,2.1
2019-03-27T20:54:18.663Z,1.7
2019-03-27T20:56:18.991Z,1.9
2019-03-27T20:58:18.617Z,1.8
2019-03-27T21:00:19.286Z,1.9
2019-03-27T21:02:20.313Z,1.9
2019-03-27T21:04:19.176Z,2.1
2019-03-27T21:06:19.036Z,2.2
2019-03-27T21:08:18.726Z,2.7
2019-03-27T21:10:18.829Z,1.8
2019-03-27T21:12:18.447Z,1.3
2019-03-27T21:14:19.069Z,2.7
2019-03-27T21:16:18.876Z,2.1
2019-03-27T21:18:18.560Z,2.8
2019-03-27T21:20:19.201Z,1.7
2019-03-27T21:22:18.846Z,1.7
2019-03-27T21:24:18.474Z,2.4
2019-03-27T21:26:18.731Z,2.4
2019-03-27T21:28:19.392Z,2.3
2019-03-27T21:30:19.040Z,2.1
2019-03-27T21:32:18.655Z,2.5
2019-03-27T21:34:19.294Z,2.4
2019-03-27T21:36:18.709Z,2.5
2019-03-27T21:38:19.320Z,3
2019-03-27T21:40:19.472Z,2.5
2019-03-27T21:42:19.064Z,2.5
2019-03-27T21:44:18.654Z,2.6
2019-03-27T21:46:19.371Z,3.4
2019-03-27T21:48:18.980Z,2.5
2019-03-27T21:50:18.784Z,2.5
2019-03-27T21:52:19.368Z,3.2
2019-03-27T21:54:18.979Z,3.6
2019-03-27T21:56:18.705Z,3.5
2019-03-27T21:58:19.304Z,3.1
2019-03-27T22:00:18.927Z,4.1
2019-03-27T22:02:18.531Z,3.4
2019-03-27T22:04:19.141Z,4.1
2019-03-27T22:06:18.941Z,4.1
2019-03-27T22:08:18.542Z,3.7
2019-03-27T22:10:18.601Z,4.1
2019-03-27T22:12:19.202Z,2.4
2019-03-27T22:14:18.891Z,3.6
2019-03-27T22:16:18.759Z,3.8
2019-03-27T22:18:18.437Z,3.3
2019-03-27T22:20:19.197Z,3.2
2019-03-27T22:22:18.814Z,3.1
2019-03-27T22:24:18.415Z,3.7
2019-03-27T22:26:18.586Z,3.4
2019-03-27T22:28:19.184Z,3.1
2019-03-27T22:30:18.819Z,3.1
2019-03-27T22:32:18.413Z,2.9
2019-03-27T22:34:19.017Z,2.8
2019-03-27T22:36:19.338Z,3.5
2019-03-27T22:38:18.963Z,2.8
2019-03-27T22:40:19.042Z,2.7
2019-03-27T22:42:18.637Z,2.7
2019-03-27T22:44:19.238Z,4
2019-03-27T22:46:18.991Z,2.8
2019-03-27T22:48:18.593Z,2.8
2019-03-27T22:50:19.250Z,2.8
2019-03-27T22:52:18.845Z,2.8
2019-03-27T22:54:18.486Z,2.5
2019-03-27T22:56:18.685Z,3.1
2019-03-27T22:58:19.270Z,3.4
2019-03-27T23:00:18.917Z,3.2
2019-03-27T23:02:18.522Z,2.9
2019-03-27T23:04:19.114Z,3.4
2019-03-27T23:06:19.374Z,2.4
2019-03-27T23:08:19.066Z,3
2019-03-27T23:10:19.222Z,3.2
2019-03-27T23:12:18.836Z,2.4
2019-03-27T23:14:18.433Z,2.3
2019-03-27T23:16:19.286Z,2.3
2019-03-27T23:18:18.967Z,2.7
2019-03-27T23:20:18.616Z,2.3
2019-03-27T23:22:19.201Z,2.7
2019-03-27T23:24:18.819Z,2.4
2019-03-27T23:26:19.150Z,2.3
2019-03-27T23:28:18.758Z,2.5
2019-03-27T23:30:19.413Z,2.6
2019-03-27T23:32:19.011Z,2.5
2019-03-27T23:34:18.601Z,3.4
2019-03-27T23:36:18.424Z,3
2019-03-27T23:38:19.020Z,2.1
2019-03-27T23:40:19.109Z,2.9
2019-03-27T23:42:18.714Z,2.7
2019-03-27T23:44:19.321Z,2.2
2019-03-27T23:46:18.555Z,2.9
2019-03-27T23:48:19.155Z,2.7
2019-03-27T23:50:18.791Z,2.7
2019-03-27T23:52:19.400Z,2.1
2019-03-27T23:54:19.013Z,2.5
2019-03-27T23:56:19.318Z,2.4
2019-03-27T23:58:18.947Z,2.2
